sensor_id;sensor_type;location;lat;lon;timestamp;pressure;altitude;pressure_sealevel;temperature;humidity
23953;BME280;12163;49.316;6.092;2022-09-16T00:00:44;98952.59;;;16.26;70.46
23953;BME280;12163;49.316;6.092;2022-09-16T00:03:12;98958.41;;;16.24;70.68
23953;BME280;12163;49.316;6.092;2022-09-16T00:05:40;98952.97;;;16.24;70.25
23953;BME280;12163;49.316;6.092;2022-09-16T00:08:08;98956.34;;;16.21;69.99
23953;BME280;12163;49.316;6.092;2022-09-16T00:10:34;98961.78;;;16.21;70.21
23953;BME280;12163;49.316;6.092;2022-09-16T00:13:01;98963.84;;;16.24;70.32
23953;BME280;12163;49.316;6.092;2022-09-16T00:15:28;98960.44;;;16.27;70.49
23953;BME280;12163;49.316;6.092;2022-09-16T00:17:55;98964.31;;;16.26;70.44
23953;BME280;12163;49.316;6.092;2022-09-16T00:20:21;98963.50;;;16.26;70.07
23953;BME280;12163;49.316;6.092;2022-09-16T00:22:48;98958.03;;;16.26;69.77
23953;BME280;12163;49.316;6.092;2022-09-16T00:25:14;98956.13;;;16.26;69.90
23953;BME280;12163;49.316;6.092;2022-09-16T00:27:41;98955.00;;;16.27;69.68
23953;BME280;12163;49.316;6.092;2022-09-16T00:30:08;98953.88;;;16.28;69.99
23953;BME280;12163;49.316;6.092;2022-09-16T00:32:35;98958.84;;;16.26;69.51
23953;BME280;12163;49.316;6.092;2022-09-16T00:35:01;98967.47;;;16.28;69.79
23953;BME280;12163;49.316;6.092;2022-09-16T00:37:31;98956.38;;;16.33;69.64
23953;BME280;12163;49.316;6.092;2022-09-16T00:39:57;98958.91;;;16.38;69.43
23953;BME280;12163;49.316;6.092;2022-09-16T00:42:24;98957.09;;;16.42;69.65
23953;BME280;12163;49.316;6.092;2022-09-16T00:44:59;98960.31;;;16.44;69.57
23953;BME280;12163;49.316;6.092;2022-09-16T00:47:43;98956.09;;;16.47;69.39
23953;BME280;12163;49.316;6.092;2022-09-16T00:50:33;98961.88;;;16.45;69.36
23953;BME280;12163;49.316;6.092;2022-09-16T00:53:15;98961.88;;;16.45;69.10
23953;BME280;12163;49.316;6.092;2022-09-16T00:55:43;98959.63;;;16.47;69.84
23953;BME280;12163;49.316;6.092;2022-09-16T00:58:20;98960.75;;;16.46;69.65
23953;BME280;12163;49.316;6.092;2022-09-16T01:00:49;98949.88;;;16.46;69.19
23953;BME280;12163;49.316;6.092;2022-09-16T01:03:16;98953.72;;;16.45;69.54
23953;BME280;12163;49.316;6.092;2022-09-16T01:05:44;98961.44;;;16.43;69.22
23953;BME280;12163;49.316;6.092;2022-09-16T01:08:11;98954.38;;;16.42;69.01
23953;BME280;12163;49.316;6.092;2022-09-16T01:10:40;98959.34;;;16.40;69.25
23953;BME280;12163;49.316;6.092;2022-09-16T01:13:10;98961.31;;;16.40;69.18
23953;BME280;12163;49.316;6.092;2022-09-16T01:16:01;98961.97;;;16.37;69.16
23953;BME280;12163;49.316;6.092;2022-09-16T01:21:25;98970.94;;;16.37;69.10
23953;BME280;12163;49.316;6.092;2022-09-16T01:29:56;98972.25;;;16.31;69.16
23953;BME280;12163;49.316;6.092;2022-09-16T01:32:58;98960.91;;;16.29;68.76
23953;BME280;12163;49.316;6.092;2022-09-16T01:35:52;98961.22;;;16.28;68.59
23953;BME280;12163;49.316;6.092;2022-09-16T01:46:26;98958.84;;;16.26;68.12
23953;BME280;12163;49.316;6.092;2022-09-16T01:49:00;98957.94;;;16.22;67.62
23953;BME280;12163;49.316;6.092;2022-09-16T01:51:44;98954.72;;;16.20;67.24
23953;BME280;12163;49.316;6.092;2022-09-16T01:54:19;98961.31;;;16.19;67.22
23953;BME280;12163;49.316;6.092;2022-09-16T01:57:03;98958.59;;;16.19;67.70
23953;BME280;12163;49.316;6.092;2022-09-16T01:59:39;98966.56;;;16.24;67.51
23953;BME280;12163;49.316;6.092;2022-09-16T02:02:40;98961.13;;;16.24;67.26
23953;BME280;12163;49.316;6.092;2022-09-16T02:05:08;98954.09;;;16.23;66.77
23953;BME280;12163;49.316;6.092;2022-09-16T02:07:39;98961.13;;;16.24;66.76
23953;BME280;12163;49.316;6.092;2022-09-16T02:10:14;98960.00;;;16.25;66.63
23953;BME280;12163;49.316;6.092;2022-09-16T02:12:43;98955.69;;;16.24;66.85
23953;BME280;12163;49.316;6.092;2022-09-16T02:15:14;98953.28;;;16.23;66.93
23953;BME280;12163;49.316;6.092;2022-09-16T02:17:52;98947.06;;;16.22;66.34
23953;BME280;12163;49.316;6.092;2022-09-16T02:20:25;98958.72;;;16.23;66.48
23953;BME280;12163;49.316;6.092;2022-09-16T02:22:58;98952.50;;;16.22;65.96
23953;BME280;12163;49.316;6.092;2022-09-16T02:25:28;98963.38;;;16.22;66.50
23953;BME280;12163;49.316;6.092;2022-09-16T02:27:58;98960.31;;;16.24;66.28
23953;BME280;12163;49.316;6.092;2022-09-16T02:30:26;98954.09;;;16.23;66.72
23953;BME280;12163;49.316;6.092;2022-09-16T02:32:57;98956.34;;;16.21;66.55
23953;BME280;12163;49.316;6.092;2022-09-16T02:35:27;98955.88;;;16.19;67.22
23953;BME280;12163;49.316;6.092;2022-09-16T02:37:58;98957.66;;;16.15;66.89
23953;BME280;12163;49.316;6.092;2022-09-16T02:40:39;98958.09;;;16.05;67.32
23953;BME280;12163;49.316;6.092;2022-09-16T02:43:07;98959.09;;;16.01;66.84
23953;BME280;12163;49.316;6.092;2022-09-16T02:48:41;98965.28;;;15.89;67.21
23953;BME280;12163;49.316;6.092;2022-09-16T02:54:01;98961.19;;;15.83;67.23
23953;BME280;12163;49.316;6.092;2022-09-16T02:56:34;98969.81;;;15.85;67.47
23953;BME280;12163;49.316;6.092;2022-09-16T02:59:03;98969.94;;;15.89;67.24
23953;BME280;12163;49.316;6.092;2022-09-16T03:01:33;98965.94;;;15.86;67.00
23953;BME280;12163;49.316;6.092;2022-09-16T03:04:02;98964.38;;;15.85;67.00
23953;BME280;12163;49.316;6.092;2022-09-16T03:06:29;98961.66;;;15.85;66.72
23953;BME280;12163;49.316;6.092;2022-09-16T03:09:03;98959.59;;;15.82;66.67
23953;BME280;12163;49.316;6.092;2022-09-16T03:26:01;98954.75;;;15.67;66.41
23953;BME280;12163;49.316;6.092;2022-09-16T03:28:41;98958.28;;;15.68;66.48
23953;BME280;12163;49.316;6.092;2022-09-16T03:36:15;98951.34;;;15.70;66.56
23953;BME280;12163;49.316;6.092;2022-09-16T03:38:45;98957.94;;;15.69;66.49
23953;BME280;12163;49.316;6.092;2022-09-16T03:41:12;98952.84;;;15.68;66.60
23953;BME280;12163;49.316;6.092;2022-09-16T03:43:40;98955.09;;;15.66;66.67
23953;BME280;12163;49.316;6.092;2022-09-16T03:46:17;98958.94;;;15.65;66.21
23953;BME280;12163;49.316;6.092;2022-09-16T03:48:43;98954.97;;;15.62;66.62
23953;BME280;12163;49.316;6.092;2022-09-16T03:51:10;98957.22;;;15.60;66.68
23953;BME280;12163;49.316;6.092;2022-09-16T03:53:37;98954.97;;;15.62;66.56
23953;BME280;12163;49.316;6.092;2022-09-16T03:56:04;98951.78;;;15.60;66.69
23953;BME280;12163;49.316;6.092;2022-09-16T03:58:31;98948.72;;;15.62;67.07
23953;BME280;12163;49.316;6.092;2022-09-16T04:00:57;98957.53;;;15.59;66.55
23953;BME280;12163;49.316;6.092;2022-09-16T04:03:24;98943.81;;;15.55;66.76
23953;BME280;12163;49.316;6.092;2022-09-16T04:05:56;98943.31;;;15.53;66.73
23953;BME280;12163;49.316;6.092;2022-09-16T04:08:23;98940.50;;;15.50;67.11
23953;BME280;12163;49.316;6.092;2022-09-16T04:10:58;98940.69;;;15.45;66.73
23953;BME280;12163;49.316;6.092;2022-09-16T04:13:25;98939.44;;;15.42;67.00
23953;BME280;12163;49.316;6.092;2022-09-16T04:15:54;98946.47;;;15.43;66.92
23953;BME280;12163;49.316;6.092;2022-09-16T04:18:20;98943.59;;;15.40;67.59
23953;BME280;12163;49.316;6.092;2022-09-16T04:20:47;98939.94;;;15.36;67.30
23953;BME280;12163;49.316;6.092;2022-09-16T04:23:13;98943.00;;;15.34;67.50
23953;BME280;12163;49.316;6.092;2022-09-16T04:25:40;98951.03;;;15.31;68.07
23953;BME280;12163;49.316;6.092;2022-09-16T04:28:07;98950.72;;;15.32;67.75
23953;BME280;12163;49.316;6.092;2022-09-16T04:30:35;98950.22;;;15.30;67.96
23953;BME280;12163;49.316;6.092;2022-09-16T04:33:01;98951.34;;;15.29;67.81
23953;BME280;12163;49.316;6.092;2022-09-16T04:35:28;98959.00;;;15.27;67.52
23953;BME280;12163;49.316;6.092;2022-09-16T04:37:55;98960.78;;;15.23;67.14
23953;BME280;12163;49.316;6.092;2022-09-16T04:40:21;98956.81;;;15.21;66.76
23953;BME280;12163;49.316;6.092;2022-09-16T04:42:49;98967.19;;;15.19;66.99
23953;BME280;12163;49.316;6.092;2022-09-16T04:45:16;98957.47;;;15.18;67.27
23953;BME280;12163;49.316;6.092;2022-09-16T04:47:42;98962.13;;;15.18;67.30
23953;BME280;12163;49.316;6.092;2022-09-16T04:50:09;98956.69;;;15.18;66.92
23953;BME280;12163;49.316;6.092;2022-09-16T04:52:36;98964.38;;;15.16;66.99
23953;BME280;12163;49.316;6.092;2022-09-16T04:55:03;98958.94;;;15.16;67.21
23953;BME280;12163;49.316;6.092;2022-09-16T04:57:31;98956.22;;;15.16;66.78
23953;BME280;12163;49.316;6.092;2022-09-16T04:59:57;98954.81;;;15.38;68.85
23953;BME280;12163;49.316;6.092;2022-09-16T05:02:24;98956.88;;;15.82;67.88
23953;BME280;12163;49.316;6.092;2022-09-16T05:04:51;98954.09;;;16.23;67.48
23953;BME280;12163;49.316;6.092;2022-09-16T05:07:18;98946.28;;;16.66;65.75
23953;BME280;12163;49.316;6.092;2022-09-16T05:09:44;98953.78;;;16.93;64.53
23953;BME280;12163;49.316;6.092;2022-09-16T05:12:11;98951.94;;;16.97;62.56
23953;BME280;12163;49.316;6.092;2022-09-16T05:14:38;98953.06;;;16.84;61.39
23953;BME280;12163;49.316;6.092;2022-09-16T05:17:05;98964.75;;;16.61;62.06
23953;BME280;12163;49.316;6.092;2022-09-16T05:19:32;98971.84;;;16.41;62.45
23953;BME280;12163;49.316;6.092;2022-09-16T05:21:59;98972.09;;;16.48;62.55
23953;BME280;12163;49.316;6.092;2022-09-16T05:24:26;98970.50;;;16.47;61.23
23953;BME280;12163;49.316;6.092;2022-09-16T05:26:52;98975.19;;;16.26;61.21
23953;BME280;12163;49.316;6.092;2022-09-16T05:29:19;98973.25;;;15.94;62.13
23953;BME280;12163;49.316;6.092;2022-09-16T05:31:49;98982.19;;;15.74;62.81
23953;BME280;12163;49.316;6.092;2022-09-16T05:34:18;98980.34;;;15.66;63.96
23953;BME280;12163;49.316;6.092;2022-09-16T05:36:45;98983.94;;;15.58;63.62
23953;BME280;12163;49.316;6.092;2022-09-16T05:39:14;98982.53;;;15.52;64.10
23953;BME280;12163;49.316;6.092;2022-09-16T05:41:53;98980.47;;;15.49;63.83
23953;BME280;12163;49.316;6.092;2022-09-16T05:44:21;98977.50;;;15.42;64.69
23953;BME280;12163;49.316;6.092;2022-09-16T05:46:48;98981.34;;;15.41;63.71
23953;BME280;12163;49.316;6.092;2022-09-16T05:49:14;98989.72;;;15.28;64.90
23953;BME280;12163;49.316;6.092;2022-09-16T05:51:46;98980.53;;;15.41;65.65
23953;BME280;12163;49.316;6.092;2022-09-16T05:54:14;98981.50;;;15.65;64.06
23953;BME280;12163;49.316;6.092;2022-09-16T05:56:40;98989.22;;;15.75;63.41
23953;BME280;12163;49.316;6.092;2022-09-16T05:59:10;98972.72;;;15.60;63.76
23953;BME280;12163;49.316;6.092;2022-09-16T06:01:37;98983.63;;;15.80;62.96
23953;BME280;12163;49.316;6.092;2022-09-16T06:04:05;98983.66;;;15.92;63.07
23953;BME280;12163;49.316;6.092;2022-09-16T06:06:37;98967.09;;;15.85;61.43
23953;BME280;12163;49.316;6.092;2022-09-16T06:09:18;98976.31;;;15.72;60.72
23953;BME280;12163;49.316;6.092;2022-09-16T06:11:47;98966.09;;;15.69;60.88
23953;BME280;12163;49.316;6.092;2022-09-16T06:14:17;98977.59;;;15.54;60.66
23953;BME280;12163;49.316;6.092;2022-09-16T06:16:52;98977.28;;;15.47;62.01
23953;BME280;12163;49.316;6.092;2022-09-16T06:19:21;98977.13;;;15.73;61.97
23953;BME280;12163;49.316;6.092;2022-09-16T06:21:51;98985.31;;;15.85;61.06
23953;BME280;12163;49.316;6.092;2022-09-16T06:24:19;98989.22;;;15.75;60.78
23953;BME280;12163;49.316;6.092;2022-09-16T06:26:47;98985.03;;;15.66;62.10
23953;BME280;12163;49.316;6.092;2022-09-16T06:29:15;98984.34;;;15.89;61.32
23953;BME280;12163;49.316;6.092;2022-09-16T06:31:42;98987.47;;;15.79;60.47
23953;BME280;12163;49.316;6.092;2022-09-16T06:34:13;98984.47;;;15.72;60.62
23953;BME280;12163;49.316;6.092;2022-09-16T06:36:40;98987.78;;;15.57;61.18
23953;BME280;12163;49.316;6.092;2022-09-16T06:39:11;98977.22;;;15.56;61.96
23953;BME280;12163;49.316;6.092;2022-09-16T06:41:38;98981.91;;;15.55;61.60
23953;BME280;12163;49.316;6.092;2022-09-16T06:44:05;98990.56;;;15.69;61.18
23953;BME280;12163;49.316;6.092;2022-09-16T06:46:32;98982.03;;;15.79;61.49
23953;BME280;12163;49.316;6.092;2022-09-16T06:48:59;98982.34;;;15.98;59.86
23953;BME280;12163;49.316;6.092;2022-09-16T06:51:31;98982.63;;;16.17;58.78
23953;BME280;12163;49.316;6.092;2022-09-16T06:53:59;98989.16;;;16.04;58.22
23953;BME280;12163;49.316;6.092;2022-09-16T06:56:26;98989.56;;;15.94;58.96
23953;BME280;12163;49.316;6.092;2022-09-16T06:58:54;98987.22;;;16.05;59.55
23953;BME280;12163;49.316;6.092;2022-09-16T07:01:27;98993.81;;;16.04;57.84
23953;BME280;12163;49.316;6.092;2022-09-16T07:03:55;98991.22;;;15.87;57.75
23953;BME280;12163;49.316;6.092;2022-09-16T07:06:26;98995.03;;;15.74;58.71
23953;BME280;12163;49.316;6.092;2022-09-16T07:09:13;98995.69;;;15.71;59.58
23953;BME280;12163;49.316;6.092;2022-09-16T07:11:39;98997.06;;;15.97;58.81
23953;BME280;12163;49.316;6.092;2022-09-16T07:14:07;98988.59;;;16.31;58.58
23953;BME280;12163;49.316;6.092;2022-09-16T07:16:34;99001.59;;;16.46;56.76
23953;BME280;12163;49.316;6.092;2022-09-16T07:19:02;98992.03;;;16.40;56.23
23953;BME280;12163;49.316;6.092;2022-09-16T07:21:30;99001.34;;;16.39;57.73
23953;BME280;12163;49.316;6.092;2022-09-16T07:23:58;98995.13;;;16.39;56.77
23953;BME280;12163;49.316;6.092;2022-09-16T07:26:30;98995.94;;;16.31;56.21
23953;BME280;12163;49.316;6.092;2022-09-16T07:28:59;99002.81;;;16.16;57.40
23953;BME280;12163;49.316;6.092;2022-09-16T07:31:28;99006.41;;;16.08;57.71
23953;BME280;12163;49.316;6.092;2022-09-16T07:33:56;99008.53;;;16.03;57.47
23953;BME280;12163;49.316;6.092;2022-09-16T07:36:34;99009.56;;;15.98;58.27
23953;BME280;12163;49.316;6.092;2022-09-16T07:39:01;99006.94;;;16.02;58.97
23953;BME280;12163;49.316;6.092;2022-09-16T07:41:31;99006.94;;;16.22;57.82
23953;BME280;12163;49.316;6.092;2022-09-16T07:43:59;99015.97;;;16.14;57.88
23953;BME280;12163;49.316;6.092;2022-09-16T07:46:27;99013.47;;;16.09;58.63
23953;BME280;12163;49.316;6.092;2022-09-16T07:48:55;99022.75;;;16.08;58.59
23953;BME280;12163;49.316;6.092;2022-09-16T07:51:23;99027.06;;;16.09;58.80
23953;BME280;12163;49.316;6.092;2022-09-16T07:54:03;99025.00;;;16.06;58.86
23953;BME280;12163;49.316;6.092;2022-09-16T07:56:32;99027.94;;;16.01;59.11
23953;BME280;12163;49.316;6.092;2022-09-16T07:59:01;99027.53;;;16.11;60.01
23953;BME280;12163;49.316;6.092;2022-09-16T08:01:28;99034.56;;;16.33;58.29
23953;BME280;12163;49.316;6.092;2022-09-16T08:03:58;99026.56;;;16.28;58.42
23953;BME280;12163;49.316;6.092;2022-09-16T08:06:27;99030.16;;;16.40;59.14
23953;BME280;12163;49.316;6.092;2022-09-16T08:08:56;99031.81;;;16.53;56.60
23953;BME280;12163;49.316;6.092;2022-09-16T08:11:35;99033.28;;;16.30;56.88
23953;BME280;12163;49.316;6.092;2022-09-16T08:14:01;99030.63;;;16.22;57.64
23953;BME280;12163;49.316;6.092;2022-09-16T08:16:28;99029.75;;;16.50;58.84
23953;BME280;12163;49.316;6.092;2022-09-16T08:18:56;99033.00;;;16.76;56.08
23953;BME280;12163;49.316;6.092;2022-09-16T08:21:26;99025.31;;;16.90;56.53
23953;BME280;12163;49.316;6.092;2022-09-16T08:23:54;99028.59;;;16.84;55.33
23953;BME280;12163;49.316;6.092;2022-09-16T08:26:21;99034.41;;;17.18;55.80
23953;BME280;12163;49.316;6.092;2022-09-16T08:28:48;99034.41;;;17.30;53.81
23953;BME280;12163;49.316;6.092;2022-09-16T08:31:34;99038.72;;;17.07;53.10
23953;BME280;12163;49.316;6.092;2022-09-16T08:34:02;99040.63;;;16.94;52.43
23953;BME280;12163;49.316;6.092;2022-09-16T08:36:28;99031.78;;;16.86;53.01
23953;BME280;12163;49.316;6.092;2022-09-16T08:38:55;99036.22;;;16.90;53.27
23953;BME280;12163;49.316;6.092;2022-09-16T08:41:43;99035.75;;;16.88;54.32
23953;BME280;12163;49.316;6.092;2022-09-16T08:44:37;99040.06;;;16.89;52.47
23953;BME280;12163;49.316;6.092;2022-09-16T08:47:30;99045.63;;;16.92;51.19
23953;BME280;12163;49.316;6.092;2022-09-16T08:50:04;99038.50;;;17.00;50.87
23953;BME280;12163;49.316;6.092;2022-09-16T08:52:35;99049.88;;;17.14;48.72
23953;BME280;12163;49.316;6.092;2022-09-16T08:55:13;99038.72;;;17.07;49.61
23953;BME280;12163;49.316;6.092;2022-09-16T08:57:51;99049.66;;;17.19;49.57
23953;BME280;12163;49.316;6.092;2022-09-16T09:00:19;99041.00;;;17.29;49.16
23953;BME280;12163;49.316;6.092;2022-09-16T09:05:48;99054.31;;;17.30;45.35
23953;BME280;12163;49.316;6.092;2022-09-16T09:10:53;99054.97;;;17.15;47.61
23953;BME280;12163;49.316;6.092;2022-09-16T09:16:36;99048.47;;;17.08;46.78
23953;BME280;12163;49.316;6.092;2022-09-16T09:21:56;99037.38;;;17.13;46.50
23953;BME280;12163;49.316;6.092;2022-09-16T09:27:30;99033.75;;;17.45;46.34
23953;BME280;12163;49.316;6.092;2022-09-16T09:35:32;99043.75;;;17.77;43.53
23953;BME280;12163;49.316;6.092;2022-09-16T09:38:19;99035.09;;;17.75;44.03
23953;BME280;12163;49.316;6.092;2022-09-16T09:40:56;99029.16;;;17.73;44.82
23953;BME280;12163;49.316;6.092;2022-09-16T09:43:32;99026.06;;;17.86;45.38
23953;BME280;12163;49.316;6.092;2022-09-16T09:46:08;99030.63;;;17.94;43.71
23953;BME280;12163;49.316;6.092;2022-09-16T09:48:41;99029.59;;;17.99;43.16
23953;BME280;12163;49.316;6.092;2022-09-16T09:53:52;99029.78;;;18.45;43.85
23953;BME280;12163;49.316;6.092;2022-09-16T09:56:24;99028.78;;;18.38;44.15
23953;BME280;12163;49.316;6.092;2022-09-16T10:01:56;99032.09;;;17.92;45.44
23953;BME280;12163;49.316;6.092;2022-09-16T10:04:23;99040.00;;;17.69;46.63
23953;BME280;12163;49.316;6.092;2022-09-16T10:06:53;99042.63;;;17.66;47.03
23953;BME280;12163;49.316;6.092;2022-09-16T10:09:21;99038.53;;;17.48;45.72
23953;BME280;12163;49.316;6.092;2022-09-16T10:11:54;99041.38;;;17.39;46.97
23953;BME280;12163;49.316;6.092;2022-09-16T10:14:24;99029.69;;;17.39;45.99
23953;BME280;12163;49.316;6.092;2022-09-16T10:16:52;99030.72;;;17.46;46.47
23953;BME280;12163;49.316;6.092;2022-09-16T10:19:25;99027.69;;;17.75;46.14
23953;BME280;12163;49.316;6.092;2022-09-16T10:21:55;99028.75;;;18.10;45.70
23953;BME280;12163;49.316;6.092;2022-09-16T10:24:33;99030.19;;;18.32;44.39
23953;BME280;12163;49.316;6.092;2022-09-16T10:27:16;99020.63;;;18.26;43.77
23953;BME280;12163;49.316;6.092;2022-09-16T10:29:43;99023.13;;;18.31;44.51
23953;BME280;12163;49.316;6.092;2022-09-16T10:32:16;99017.22;;;18.29;44.61
23953;BME280;12163;49.316;6.092;2022-09-16T10:34:44;99016.53;;;18.20;44.12
23953;BME280;12163;49.316;6.092;2022-09-16T10:40:05;99012.97;;;18.04;44.32
23953;BME280;12163;49.316;6.092;2022-09-16T10:42:44;99012.06;;;18.00;45.77
23953;BME280;12163;49.316;6.092;2022-09-16T10:47:50;99006.25;;;18.01;45.87
23953;BME280;12163;49.316;6.092;2022-09-16T10:50:19;99007.50;;;18.04;45.03
23953;BME280;12163;49.316;6.092;2022-09-16T10:52:47;99028.97;;;18.05;46.17
23953;BME280;12163;49.316;6.092;2022-09-16T10:55:23;99031.38;;;18.07;45.72
23953;BME280;12163;49.316;6.092;2022-09-16T10:57:51;99025.25;;;17.98;46.43
23953;BME280;12163;49.316;6.092;2022-09-16T11:00:22;99034.25;;;17.86;46.06
23953;BME280;12163;49.316;6.092;2022-09-16T11:19:27;99029.41;;;17.80;46.05
23953;BME280;12163;49.316;6.092;2022-09-16T11:30:13;99026.88;;;17.87;45.69
23953;BME280;12163;49.316;6.092;2022-09-16T11:32:57;99023.44;;;18.02;44.78
23953;BME280;12163;49.316;6.092;2022-09-16T11:38:26;99024.78;;;18.08;45.22
23953;BME280;12163;49.316;6.092;2022-09-16T11:49:44;99030.78;;;18.13;44.99
23953;BME280;12163;49.316;6.092;2022-09-16T11:52:22;99027.56;;;18.23;44.85
23953;BME280;12163;49.316;6.092;2022-09-16T11:55:32;99025.59;;;18.36;45.59
23953;BME280;12163;49.316;6.092;2022-09-16T11:57:57;99024.31;;;18.45;45.48
23953;BME280;12163;49.316;6.092;2022-09-16T12:00:25;99018.06;;;18.45;44.76
23953;BME280;12163;49.316;6.092;2022-09-16T12:03:09;99028.63;;;18.46;45.45
23953;BME280;12163;49.316;6.092;2022-09-16T12:05:48;99007.19;;;18.33;44.47
23953;BME280;12163;49.316;6.092;2022-09-16T12:08:33;99016.25;;;18.37;45.49
23953;BME280;12163;49.316;6.092;2022-09-16T12:11:19;99013.91;;;18.35;45.25
23953;BME280;12163;49.316;6.092;2022-09-16T12:13:56;99015.56;;;18.40;45.62
23953;BME280;12163;49.316;6.092;2022-09-16T12:16:48;99005.72;;;18.51;46.69
23953;BME280;12163;49.316;6.092;2022-09-16T12:19:23;99007.66;;;18.50;45.49
23953;BME280;12163;49.316;6.092;2022-09-16T12:22:05;99012.31;;;18.34;45.13
23953;BME280;12163;49.316;6.092;2022-09-16T12:27:15;99009.69;;;18.26;46.49
23953;BME280;12163;49.316;6.092;2022-09-16T12:29:57;99015.25;;;18.57;45.84
23953;BME280;12163;49.316;6.092;2022-09-16T12:35:00;98997.75;;;19.04;44.94
23953;BME280;12163;49.316;6.092;2022-09-16T12:40:05;98995.91;;;18.92;42.72
23953;BME280;12163;49.316;6.092;2022-09-16T12:45:33;99013.66;;;18.56;44.82
23953;BME280;12163;49.316;6.092;2022-09-16T12:48:34;99013.13;;;18.23;45.73
23953;BME280;12163;49.316;6.092;2022-09-16T13:02:22;99019.38;;;17.84;48.09
23953;BME280;12163;49.316;6.092;2022-09-16T13:04:54;99012.78;;;17.85;47.99
23953;BME280;12163;49.316;6.092;2022-09-16T13:07:32;99019.75;;;17.70;48.12
23953;BME280;12163;49.316;6.092;2022-09-16T13:10:19;99040.03;;;17.45;49.42
23953;BME280;12163;49.316;6.092;2022-09-16T13:13:19;99059.50;;;16.99;50.88
23953;BME280;12163;49.316;6.092;2022-09-16T13:15:58;99077.97;;;16.29;56.62
23953;BME280;12163;49.316;6.092;2022-09-16T13:18:43;99061.78;;;15.42;59.29
23953;BME280;12163;49.316;6.092;2022-09-16T13:22:02;99070.19;;;15.12;61.26
23953;BME280;12163;49.316;6.092;2022-09-16T13:26:53;99066.03;;;14.69;61.96
23953;BME280;12163;49.316;6.092;2022-09-16T13:31:57;99056.66;;;15.04;60.79
23953;BME280;12163;49.316;6.092;2022-09-16T13:34:24;99074.84;;;15.12;60.49
23953;BME280;12163;49.316;6.092;2022-09-16T13:36:50;99057.59;;;15.08;60.94
23953;BME280;12163;49.316;6.092;2022-09-16T13:39:32;99060.97;;;15.05;60.13
23953;BME280;12163;49.316;6.092;2022-09-16T13:42:15;99054.41;;;15.06;60.66
23953;BME280;12163;49.316;6.092;2022-09-16T13:44:42;99052.03;;;15.04;61.20
23953;BME280;12163;49.316;6.092;2022-09-16T13:49:58;99044.66;;;15.05;62.17
23953;BME280;12163;49.316;6.092;2022-09-16T13:52:28;99043.88;;;15.04;62.43
23953;BME280;12163;49.316;6.092;2022-09-16T13:54:58;99038.09;;;15.06;62.74
23953;BME280;12163;49.316;6.092;2022-09-16T14:13:49;99032.44;;;15.56;59.87
23953;BME280;12163;49.316;6.092;2022-09-16T14:16:28;99030.19;;;15.58;60.13
23953;BME280;12163;49.316;6.092;2022-09-16T14:19:10;99037.69;;;15.61;59.75
23953;BME280;12163;49.316;6.092;2022-09-16T14:21:43;99025.94;;;15.69;60.13
23953;BME280;12163;49.316;6.092;2022-09-16T14:24:17;99027.16;;;15.80;60.36
23953;BME280;12163;49.316;6.092;2022-09-16T14:26:55;99029.66;;;15.85;59.27
23953;BME280;12163;49.316;6.092;2022-09-16T14:29:23;99032.69;;;15.84;59.57
23953;BME280;12163;49.316;6.092;2022-09-16T14:31:54;99022.63;;;15.84;59.45
23953;BME280;12163;49.316;6.092;2022-09-16T14:34:29;99023.69;;;15.92;59.71
23953;BME280;12163;49.316;6.092;2022-09-16T14:36:58;99026.59;;;16.07;60.42
23953;BME280;12163;49.316;6.092;2022-09-16T14:39:26;99025.66;;;16.24;59.96
23953;BME280;12163;49.316;6.092;2022-09-16T14:41:56;99028.56;;;16.39;59.43
23953;BME280;12163;49.316;6.092;2022-09-16T14:44:31;99028.66;;;16.63;59.64
23953;BME280;12163;49.316;6.092;2022-09-16T14:49:36;99021.22;;;17.68;57.19
23953;BME280;12163;49.316;6.092;2022-09-16T14:52:03;99031.97;;;18.00;55.60
23953;BME280;12163;49.316;6.092;2022-09-16T14:54:30;99017.47;;;18.12;54.35
23953;BME280;12163;49.316;6.092;2022-09-16T14:57:04;99027.97;;;17.98;55.29
23953;BME280;12163;49.316;6.092;2022-09-16T14:59:35;99039.44;;;17.76;55.35
23953;BME280;12163;49.316;6.092;2022-09-16T15:04:55;99039.72;;;17.98;53.58
23953;BME280;12163;49.316;6.092;2022-09-16T15:07:29;99069.44;;;17.64;53.65
23953;BME280;12163;49.316;6.092;2022-09-16T15:10:04;99065.56;;;17.17;55.03
23953;BME280;12163;49.316;6.092;2022-09-16T15:12:34;99085.00;;;16.71;52.51
23953;BME280;12163;49.316;6.092;2022-09-16T15:15:24;99105.75;;;16.02;56.10
23953;BME280;12163;49.316;6.092;2022-09-16T15:21:00;99117.78;;;14.64;63.68
23953;BME280;12163;49.316;6.092;2022-09-16T15:23:28;99118.59;;;14.13;65.15
23953;BME280;12163;49.316;6.092;2022-09-16T15:25:58;99123.31;;;13.82;66.64
23953;BME280;12163;49.316;6.092;2022-09-16T15:28:29;99131.25;;;13.62;67.16
23953;BME280;12163;49.316;6.092;2022-09-16T15:30:56;99118.13;;;13.47;68.73
23953;BME280;12163;49.316;6.092;2022-09-16T15:33:35;99115.06;;;13.40;68.74
23953;BME280;12163;49.316;6.092;2022-09-16T15:36:03;99120.50;;;13.40;68.89
23953;BME280;12163;49.316;6.092;2022-09-16T15:38:29;99111.69;;;13.35;69.10
23953;BME280;12163;49.316;6.092;2022-09-16T15:41:01;99112.63;;;13.30;68.93
23953;BME280;12163;49.316;6.092;2022-09-16T15:43:34;99105.13;;;13.27;69.25
23953;BME280;12163;49.316;6.092;2022-09-16T15:46:14;99106.72;;;13.28;68.60
23953;BME280;12163;49.316;6.092;2022-09-16T15:48:48;99105.50;;;13.34;67.89
23953;BME280;12163;49.316;6.092;2022-09-16T15:51:28;99105.66;;;13.38;67.94
23953;BME280;12163;49.316;6.092;2022-09-16T16:02:24;99120.34;;;13.45;67.95
23953;BME280;12163;49.316;6.092;2022-09-16T16:05:13;99111.56;;;13.48;68.03
23953;BME280;12163;49.316;6.092;2022-09-16T16:07:46;99112.72;;;13.55;68.26
23953;BME280;12163;49.316;6.092;2022-09-16T16:10:26;99104.28;;;13.57;68.30
23953;BME280;12163;49.316;6.092;2022-09-16T16:12:53;99108.44;;;13.63;67.67
23953;BME280;12163;49.316;6.092;2022-09-16T16:15:24;99098.56;;;13.67;67.87
23953;BME280;12163;49.316;6.092;2022-09-16T16:17:53;99091.88;;;13.73;67.57